createdAt,value
2022-12-10T00:01:52.961Z,15.07
2022-12-10T00:04:21.910Z,12.27
2022-12-10T00:06:50.504Z,9.10
2022-12-10T00:09:21.337Z,7.97
2022-12-10T00:11:50.619Z,7.32
2022-12-10T00:14:18.451Z,7.25
2022-12-10T00:16:46.236Z,8.88
2022-12-10T00:19:13.933Z,8.85
2022-12-10T00:21:45.877Z,7.50
2022-12-10T00:24:13.725Z,6.78
2022-12-10T00:26:42.607Z,6.45
2022-12-10T00:29:12.907Z,5.63
2022-12-10T00:31:41.379Z,4.88
2022-12-10T00:34:11.968Z,5.40
2022-12-10T00:36:45.150Z,5.10
2022-12-10T00:39:17.252Z,7.97
2022-12-10T00:41:47.113Z,9.88
2022-12-10T00:44:15.759Z,4.40
2022-12-10T00:46:43.760Z,5.22
2022-12-10T00:49:11.811Z,5.25
2022-12-10T00:51:41.636Z,4.07
2022-12-10T00:54:09.758Z,4.13
2022-12-10T00:56:37.833Z,5.20
2022-12-10T00:59:05.677Z,5.72
2022-12-10T01:01:39.731Z,6.03
2022-12-10T01:04:13.197Z,6.10
2022-12-10T01:06:46.240Z,4.43
2022-12-10T01:09:21.992Z,4.05
2022-12-10T01:11:52.721Z,4.90
2022-12-10T01:14:29.548Z,3.97
2022-12-10T01:17:01.283Z,4.30
2022-12-10T01:19:31.409Z,4.70
2022-12-10T01:22:03.911Z,4.68
2022-12-10T01:24:32.607Z,4.05
2022-12-10T01:27:00.488Z,4.57
2022-12-10T01:31:59.135Z,3.85
2022-12-10T01:34:27.253Z,4.35
2022-12-10T01:36:58.376Z,4.28
2022-12-10T01:39:26.389Z,5.15
2022-12-10T01:42:00.874Z,4.35
2022-12-10T01:44:28.378Z,4.50
2022-12-10T01:47:01.521Z,4.27
2022-12-10T01:49:38.337Z,4.40
2022-12-10T01:52:12.345Z,4.63
2022-12-10T01:54:46.136Z,4.60
2022-12-10T01:57:28.219Z,5.07
2022-12-10T02:00:03.093Z,4.40
2022-12-10T02:02:50.292Z,4.25
2022-12-10T02:05:42.111Z,4.80
2022-12-10T02:08:15.424Z,5.22
2022-12-10T02:11:01.094Z,5.97
2022-12-10T02:14:05.127Z,6.65
2022-12-10T02:16:43.642Z,5.25
2022-12-10T02:19:18.392Z,5.65
2022-12-10T02:21:50.611Z,4.88
2022-12-10T02:24:30.024Z,5.78
2022-12-10T02:27:24.971Z,3.58
2022-12-10T02:29:55.599Z,6.28
2022-12-10T02:32:31.561Z,4.28
2022-12-10T02:35:10.480Z,4.95
2022-12-10T02:37:50.874Z,4.57
2022-12-10T02:40:28.489Z,4.75
2022-12-10T02:42:56.708Z,4.65
2022-12-10T02:45:30.523Z,3.45
2022-12-10T02:48:04.575Z,3.60
2022-12-10T02:53:07.843Z,3.25
2022-12-10T02:56:08.610Z,3.00
2022-12-10T02:58:58.009Z,1.90
2022-12-10T03:01:58.093Z,2.50
2022-12-10T03:05:04.842Z,3.58
2022-12-10T03:07:46.016Z,3.25
2022-12-10T03:10:31.581Z,4.43
2022-12-10T03:13:03.553Z,4.90
2022-12-10T03:15:36.338Z,6.65
2022-12-10T03:18:07.140Z,4.35
2022-12-10T03:20:42.489Z,3.25
2022-12-10T03:23:17.563Z,3.55
2022-12-10T03:25:49.184Z,3.50
2022-12-10T03:28:22.600Z,3.17
2022-12-10T03:30:54.180Z,2.83
2022-12-10T03:33:22.326Z,3.08
2022-12-10T03:35:51.823Z,4.00
2022-12-10T03:38:20.455Z,3.35
2022-12-10T03:40:48.225Z,3.72
2022-12-10T03:43:15.969Z,4.30
2022-12-10T03:45:43.548Z,3.85
2022-12-10T03:48:11.189Z,4.03
2022-12-10T03:50:38.769Z,3.75
2022-12-10T03:53:06.306Z,5.05
2022-12-10T03:55:33.978Z,4.57
2022-12-10T03:58:01.542Z,5.15
2022-12-10T04:00:29.104Z,6.47
2022-12-10T04:02:56.758Z,5.68
2022-12-10T04:05:24.435Z,5.43
2022-12-10T04:07:52.368Z,7.90
2022-12-10T04:10:20.152Z,6.38
2022-12-10T04:13:07.974Z,4.32
2022-12-10T04:15:58.652Z,3.38
2022-12-10T04:18:26.229Z,3.22
2022-12-10T04:21:12.345Z,3.67
2022-12-10T04:23:59.237Z,3.40
2022-12-10T04:26:45.896Z,3.92
2022-12-10T04:29:14.662Z,4.25
2022-12-10T04:31:42.238Z,4.10
2022-12-10T04:34:09.958Z,4.88
2022-12-10T04:36:37.819Z,5.30
2022-12-10T04:39:05.644Z,5.15
2022-12-10T04:41:33.261Z,5.85
2022-12-10T04:44:00.919Z,4.93
2022-12-10T04:46:29.222Z,5.97
2022-12-10T04:48:56.981Z,5.53
2022-12-10T04:51:24.571Z,6.13
2022-12-10T04:53:52.253Z,5.50
2022-12-10T04:56:21.079Z,4.10
2022-12-10T04:58:48.734Z,6.53
2022-12-10T05:01:17.109Z,13.60
2022-12-10T05:03:45.692Z,6.13
2022-12-10T05:06:16.336Z,6.50
2022-12-10T05:08:44.776Z,5.90
2022-12-10T05:13:50.759Z,4.95
2022-12-10T05:16:21.380Z,4.50
2022-12-10T05:18:50.865Z,4.90
2022-12-10T05:21:21.855Z,4.60
2022-12-10T05:23:52.524Z,6.18
2022-12-10T05:26:25.717Z,4.88
2022-12-10T05:28:56.691Z,10.90
2022-12-10T05:31:29.747Z,11.65
2022-12-10T05:33:59.670Z,8.40
2022-12-10T05:36:30.908Z,13.52
2022-12-10T05:39:00.042Z,6.88
2022-12-10T05:41:32.142Z,9.10
2022-12-10T05:44:00.218Z,6.85
2022-12-10T05:46:31.921Z,5.72
2022-12-10T05:49:02.076Z,8.02
2022-12-10T05:51:34.008Z,9.25
2022-12-10T05:54:05.309Z,7.00
2022-12-10T05:56:33.206Z,7.40
2022-12-10T05:59:03.327Z,6.72
2022-12-10T06:01:35.323Z,8.35
2022-12-10T06:04:06.028Z,10.15
2022-12-10T06:06:37.234Z,8.90
2022-12-10T06:09:07.036Z,15.82
2022-12-10T06:11:35.004Z,11.52
2022-12-10T06:14:03.325Z,11.10
2022-12-10T06:18:59.502Z,7.35
2022-12-10T06:23:54.919Z,6.60
2022-12-10T06:26:26.311Z,4.72
2022-12-10T06:28:54.841Z,3.70
2022-12-10T06:31:23.934Z,5.70
2022-12-10T06:33:53.554Z,7.03
2022-12-10T06:36:21.720Z,11.70
2022-12-10T06:38:49.812Z,26.67
2022-12-10T06:41:21.747Z,23.38
2022-12-10T06:43:50.253Z,23.30
2022-12-10T06:46:21.420Z,21.27
2022-12-10T06:48:49.520Z,29.73
2022-12-10T06:51:19.016Z,27.20
2022-12-10T06:53:47.989Z,18.88
2022-12-10T06:56:19.658Z,20.58
2022-12-10T06:58:47.778Z,14.18
2022-12-10T07:01:27.184Z,11.95
2022-12-10T07:03:57.728Z,11.38
2022-12-10T07:06:29.116Z,13.43
2022-12-10T07:08:56.671Z,16.80
2022-12-10T07:11:26.507Z,15.67
2022-12-10T07:13:54.155Z,28.77
2022-12-10T07:16:33.570Z,29.88
2022-12-10T07:19:03.438Z,23.23
2022-12-10T07:21:35.418Z,26.50
2022-12-10T07:24:11.212Z,34.83
2022-12-10T07:26:42.186Z,17.02
2022-12-10T07:29:17.949Z,17.20
2022-12-10T07:31:46.298Z,22.05
2022-12-10T07:36:42.241Z,27.42
2022-12-10T07:39:17.987Z,16.52
2022-12-10T07:41:55.977Z,12.40
2022-12-10T07:44:27.022Z,11.98
2022-12-10T07:46:56.245Z,17.50
2022-12-10T07:49:24.018Z,23.20
2022-12-10T07:51:52.057Z,19.98
2022-12-10T07:54:21.154Z,19.77
2022-12-10T07:56:48.749Z,13.48
2022-12-10T07:59:16.477Z,16.30
2022-12-10T08:01:44.237Z,18.13
2022-12-10T08:04:11.911Z,13.93
2022-12-10T08:06:39.415Z,13.60
2022-12-10T08:09:08.517Z,15.52
2022-12-10T08:11:36.149Z,13.57
2022-12-10T08:14:03.732Z,12.63
2022-12-10T08:16:32.314Z,16.55
2022-12-10T08:19:02.810Z,55.28
2022-12-10T08:21:33.440Z,23.98
2022-12-10T08:24:01.859Z,20.23
2022-12-10T08:26:33.179Z,17.48
2022-12-10T08:29:02.153Z,15.00
2022-12-10T08:31:35.765Z,13.65
2022-12-10T08:34:05.900Z,16.05
2022-12-10T08:36:33.527Z,13.88
2022-12-10T08:39:01.084Z,17.50
2022-12-10T08:41:28.938Z,19.27
2022-12-10T08:43:56.581Z,19.40
2022-12-10T08:46:26.042Z,20.88
2022-12-10T08:48:53.661Z,15.27
2022-12-10T08:51:21.921Z,15.02
2022-12-10T08:56:16.960Z,18.10
2022-12-10T08:58:44.518Z,25.85
2022-12-10T09:01:17.388Z,41.75
2022-12-10T09:03:46.056Z,27.77
2022-12-10T09:06:18.765Z,20.85
2022-12-10T09:08:47.152Z,22.05
2022-12-10T09:11:20.574Z,20.20
2022-12-10T09:13:48.254Z,22.20
2022-12-10T09:16:16.133Z,18.70
2022-12-10T09:18:44.036Z,17.08
2022-12-10T09:21:17.405Z,42.38
2022-12-10T09:23:45.785Z,58.47
2022-12-10T09:26:17.368Z,35.10
2022-12-10T09:28:46.052Z,24.95
2022-12-10T09:31:20.155Z,18.85
2022-12-10T09:33:51.609Z,23.65
2022-12-10T09:36:21.147Z,29.40
2022-12-10T09:38:50.486Z,22.55
2022-12-10T09:41:45.520Z,32.80
2022-12-10T09:44:33.088Z,20.40
2022-12-10T09:47:04.850Z,16.20
2022-12-10T09:49:47.345Z,21.60
2022-12-10T09:52:23.819Z,13.05
2022-12-10T09:55:11.201Z,14.93
2022-12-10T09:57:52.686Z,16.27
2022-12-10T10:00:30.574Z,8.18
2022-12-10T10:03:01.645Z,6.35
2022-12-10T10:05:34.069Z,6.55
2022-12-10T10:08:07.697Z,19.70
2022-12-10T10:10:39.880Z,19.85
2022-12-10T10:13:32.667Z,32.08
2022-12-10T10:16:30.548Z,25.88
2022-12-10T10:19:12.837Z,29.00
2022-12-10T10:21:44.473Z,25.98
2022-12-10T10:24:18.742Z,22.42
2022-12-10T10:26:47.037Z,26.23
2022-12-10T10:29:21.161Z,31.25
2022-12-10T10:32:22.902Z,33.00
2022-12-10T10:34:56.948Z,31.50
2022-12-10T10:37:36.368Z,32.92
2022-12-10T10:40:04.605Z,24.23
2022-12-10T10:42:41.190Z,22.55
2022-12-10T10:45:43.611Z,15.52
2022-12-10T10:48:18.290Z,14.77
2022-12-10T10:51:05.684Z,14.93
2022-12-10T10:53:46.278Z,16.40
2022-12-10T10:56:37.960Z,14.00
2022-12-10T10:59:18.644Z,13.95
2022-12-10T11:01:56.021Z,10.30
2022-12-10T11:04:49.647Z,8.88
2022-12-10T11:07:35.725Z,11.30
2022-12-10T11:10:21.081Z,11.50
2022-12-10T11:13:23.497Z,16.02
2022-12-10T11:16:13.333Z,15.45
2022-12-10T11:18:52.292Z,16.48
2022-12-10T11:21:25.991Z,16.20
2022-12-10T11:23:56.926Z,20.60
2022-12-10T11:27:05.988Z,16.17
2022-12-10T11:29:41.612Z,19.27
2022-12-10T11:32:26.932Z,16.92
2022-12-10T11:35:14.946Z,13.80
2022-12-10T11:38:16.946Z,17.95
2022-12-10T11:41:08.449Z,8.40
2022-12-10T11:44:11.039Z,12.73
2022-12-10T11:47:06.412Z,7.63
2022-12-10T11:49:58.428Z,10.38
2022-12-10T11:53:00.457Z,8.57
2022-12-10T11:55:48.549Z,7.80
2022-12-10T11:58:59.782Z,7.15
2022-12-10T12:01:55.566Z,11.15
2022-12-10T12:04:40.515Z,9.18
2022-12-10T12:07:26.738Z,6.65
2022-12-10T12:10:12.901Z,8.27
2022-12-10T12:13:15.557Z,9.55
2022-12-10T12:16:00.934Z,15.38
2022-12-10T12:18:51.534Z,7.15
2022-12-10T12:21:19.593Z,8.68
2022-12-10T12:24:04.548Z,9.02
2022-12-10T12:26:49.999Z,6.20
2022-12-10T12:29:42.147Z,7.63
2022-12-10T12:32:28.102Z,6.97
2022-12-10T12:35:20.722Z,7.63
2022-12-10T12:38:02.085Z,7.35
2022-12-10T12:40:49.769Z,9.00
2022-12-10T12:43:26.079Z,14.48
2022-12-10T12:45:56.565Z,11.05
2022-12-10T12:48:42.322Z,9.43
2022-12-10T12:51:18.270Z,9.90
2022-12-10T12:53:46.078Z,12.32
2022-12-10T12:56:52.098Z,11.38
2022-12-10T13:00:20.064Z,14.20
2022-12-10T13:03:18.498Z,14.30
2022-12-10T13:05:47.936Z,11.23
2022-12-10T13:08:18.914Z,9.80
2022-12-10T13:11:16.954Z,14.65
2022-12-10T13:14:09.211Z,8.65
2022-12-10T13:16:39.599Z,9.73
2022-12-10T13:19:20.916Z,7.90
2022-12-10T13:22:38.817Z,6.32
2022-12-10T13:25:14.343Z,6.63
2022-12-10T13:27:54.769Z,9.93
2022-12-10T13:30:33.971Z,9.93
2022-12-10T13:33:20.701Z,8.57
2022-12-10T13:36:04.339Z,10.50
2022-12-10T13:39:18.475Z,7.70
2022-12-10T13:42:26.075Z,6.35
2022-12-10T13:45:23.990Z,6.53
2022-12-10T13:51:19.617Z,8.70
2022-12-10T13:54:21.241Z,7.55
2022-12-10T13:57:23.319Z,8.68
2022-12-10T14:00:23.506Z,7.95
2022-12-10T14:03:15.806Z,7.47
2022-12-10T14:05:58.327Z,6.07
2022-12-10T14:08:34.302Z,6.65
2022-12-10T14:11:18.428Z,8.75
2022-12-10T14:13:53.912Z,9.88
2022-12-10T14:16:24.875Z,9.35
2022-12-10T14:19:05.261Z,10.05
2022-12-10T14:21:37.419Z,7.60
2022-12-10T14:24:06.217Z,13.57
2022-12-10T14:26:37.881Z,14.25
2022-12-10T14:29:08.518Z,6.32
2022-12-10T14:31:45.025Z,6.00
2022-12-10T14:34:19.201Z,12.20
2022-12-10T14:36:51.481Z,12.80
2022-12-10T14:39:29.332Z,12.13
2022-12-10T14:42:03.469Z,13.57
2022-12-10T14:44:35.505Z,11.05
2022-12-10T14:47:18.451Z,9.82
2022-12-10T14:49:54.533Z,12.18
2022-12-10T14:52:36.284Z,15.02
2022-12-10T14:55:05.595Z,11.43
2022-12-10T14:57:41.978Z,11.10
2022-12-10T15:00:20.610Z,9.57
2022-12-10T15:03:12.554Z,13.10
2022-12-10T15:05:40.184Z,10.48
2022-12-10T15:08:16.884Z,23.42
2022-12-10T15:10:51.077Z,29.55
2022-12-10T15:13:25.502Z,28.02
2022-12-10T15:15:54.700Z,21.85
2022-12-10T15:18:38.448Z,22.08
2022-12-10T15:21:08.658Z,15.00
2022-12-10T15:23:37.366Z,18.08
2022-12-10T15:26:21.650Z,17.20
2022-12-10T15:28:52.086Z,22.35
2022-12-10T15:31:32.511Z,28.77
2022-12-10T15:34:08.884Z,17.90
2022-12-10T15:36:42.254Z,14.88
2022-12-10T15:39:12.585Z,12.20
2022-12-10T15:41:56.227Z,23.40
2022-12-10T15:44:43.467Z,18.20
2022-12-10T15:47:24.609Z,18.43
2022-12-10T15:49:56.777Z,23.02
2022-12-10T15:52:31.401Z,13.77
2022-12-10T15:55:00.043Z,12.55
2022-12-10T15:57:40.492Z,14.27
2022-12-10T16:00:26.215Z,15.93
2022-12-10T16:03:06.431Z,7.28
2022-12-10T16:05:39.701Z,14.10
2022-12-10T16:08:29.849Z,16.67
2022-12-10T16:11:03.907Z,16.77
2022-12-10T16:13:42.030Z,13.60
2022-12-10T16:18:39.102Z,11.10
2022-12-10T16:21:09.498Z,10.52
2022-12-10T16:23:39.473Z,14.32
2022-12-10T16:26:24.918Z,17.02
2022-12-10T16:28:53.168Z,14.10
2022-12-10T16:33:52.757Z,9.65
2022-12-10T16:36:20.661Z,11.90
2022-12-10T16:38:48.458Z,13.95
2022-12-10T16:41:23.295Z,13.32
2022-12-10T16:43:51.698Z,13.48
2022-12-10T16:46:19.468Z,19.92
2022-12-10T16:48:47.317Z,12.27
2022-12-10T16:51:22.279Z,16.08
2022-12-10T16:53:49.922Z,18.48
2022-12-10T16:56:17.873Z,16.70
2022-12-10T16:58:46.553Z,19.02
2022-12-10T17:01:22.345Z,17.98
2022-12-10T17:03:51.782Z,12.85
2022-12-10T17:06:20.350Z,15.77
2022-12-10T17:08:48.445Z,18.33
2022-12-10T17:11:41.759Z,12.77
2022-12-10T17:14:21.619Z,11.32
2022-12-10T17:16:50.370Z,19.02
2022-12-10T17:19:18.253Z,21.15
2022-12-10T17:21:46.609Z,15.95
2022-12-10T17:24:14.239Z,16.25
2022-12-10T17:26:48.944Z,15.57
2022-12-10T17:29:28.910Z,17.73
2022-12-10T17:31:56.584Z,15.18
2022-12-10T17:36:52.993Z,15.20
2022-12-10T17:39:25.790Z,14.48
2022-12-10T17:41:53.841Z,16.38
2022-12-10T17:44:23.040Z,16.45
2022-12-10T17:46:50.840Z,16.30
2022-12-10T17:49:18.547Z,16.00
2022-12-10T17:51:46.343Z,16.83
2022-12-10T17:54:14.603Z,17.92
2022-12-10T17:56:43.043Z,17.88
2022-12-10T17:59:15.160Z,18.05
2022-12-10T18:01:48.103Z,22.38
2022-12-10T18:04:16.442Z,22.17
2022-12-10T18:06:44.022Z,22.02
2022-12-10T18:09:13.140Z,25.70
2022-12-10T18:11:44.255Z,25.17
2022-12-10T18:14:15.242Z,25.42
2022-12-10T18:16:44.310Z,28.92
2022-12-10T18:19:15.902Z,36.13
2022-12-10T18:21:44.525Z,41.03
2022-12-10T18:24:13.408Z,37.78
2022-12-10T18:26:44.642Z,33.80
2022-12-10T18:29:15.850Z,34.35
2022-12-10T18:31:45.004Z,39.10
2022-12-10T18:34:16.062Z,40.05
2022-12-10T18:36:47.777Z,35.85
2022-12-10T18:39:22.821Z,40.88
2022-12-10T18:41:52.300Z,32.67
2022-12-10T18:44:25.080Z,35.28
2022-12-10T18:46:56.517Z,37.55
2022-12-10T18:49:25.562Z,32.38
2022-12-10T18:51:53.161Z,32.67
2022-12-10T18:54:20.936Z,28.55
2022-12-10T18:57:32.362Z,27.73
2022-12-10T18:59:36.149Z,25.98
2022-12-10T19:02:04.050Z,26.33
2022-12-10T19:04:31.635Z,28.27
2022-12-10T19:06:59.560Z,30.33
2022-12-10T19:09:32.331Z,24.67
2022-12-10T19:12:00.481Z,23.48
2022-12-10T19:14:28.073Z,24.40
2022-12-10T19:16:55.644Z,24.15
2022-12-10T19:19:23.150Z,25.07
2022-12-10T19:21:50.743Z,23.83
2022-12-10T19:24:18.537Z,22.30
2022-12-10T19:26:47.474Z,22.80
2022-12-10T19:29:19.634Z,26.48
2022-12-10T19:31:48.954Z,25.52
2022-12-10T19:34:19.503Z,25.63
2022-12-10T19:36:52.470Z,26.88
2022-12-10T19:39:26.047Z,26.63
2022-12-10T19:41:55.391Z,25.42
2022-12-10T19:44:23.161Z,21.48
2022-12-10T19:46:51.537Z,18.23
2022-12-10T19:49:19.914Z,19.55
2022-12-10T19:54:15.677Z,17.42
2022-12-10T19:56:44.233Z,24.88
2022-12-10T19:59:18.443Z,15.75
2022-12-10T20:01:47.146Z,17.00
2022-12-10T20:04:17.551Z,15.95
2022-12-10T20:06:49.011Z,13.95
2022-12-10T20:09:28.720Z,17.20
2022-12-10T20:11:57.062Z,15.20
2022-12-10T20:14:25.120Z,16.90
2022-12-10T20:16:53.809Z,17.80
2022-12-10T20:19:24.688Z,14.13
2022-12-10T20:21:53.272Z,17.73
2022-12-10T20:24:20.998Z,18.67
2022-12-10T20:26:50.022Z,15.65
2022-12-10T20:29:22.783Z,16.95
2022-12-10T20:31:54.747Z,12.43
2022-12-10T20:34:24.926Z,15.35
2022-12-10T20:36:53.255Z,11.60
2022-12-10T20:39:26.150Z,14.13
2022-12-10T20:41:55.516Z,10.18
2022-12-10T20:44:24.400Z,8.85
2022-12-10T20:46:54.285Z,9.80
2022-12-10T20:49:24.792Z,8.80
2022-12-10T20:51:52.631Z,7.85
2022-12-10T20:54:20.437Z,7.60
2022-12-10T20:56:48.088Z,6.93
2022-12-10T20:59:17.533Z,9.00
2022-12-10T21:01:45.428Z,5.53
2022-12-10T21:04:13.342Z,5.97
2022-12-10T21:06:43.991Z,7.05
2022-12-10T21:09:13.847Z,5.18
2022-12-10T21:11:41.405Z,4.75
2022-12-10T21:14:18.417Z,3.70
2022-12-10T21:16:58.620Z,4.95
2022-12-10T21:19:27.880Z,5.50
2022-12-10T21:21:56.096Z,5.07
2022-12-10T21:24:23.653Z,5.55
2022-12-10T21:26:51.181Z,6.07
2022-12-10T21:29:18.895Z,4.72
2022-12-10T21:31:46.919Z,4.38
2022-12-10T21:34:14.468Z,5.65
2022-12-10T21:36:42.099Z,4.80
2022-12-10T21:39:09.739Z,3.70
2022-12-10T21:41:56.151Z,5.17
2022-12-10T21:44:23.749Z,4.28
2022-12-10T21:46:51.486Z,3.53
2022-12-10T21:49:19.226Z,3.05
2022-12-10T21:51:46.829Z,5.00
2022-12-10T21:54:14.337Z,3.90
2022-12-10T21:56:41.912Z,2.67
2022-12-10T21:59:09.474Z,3.67
2022-12-10T22:01:37.101Z,3.37
2022-12-10T22:04:05.119Z,2.50
2022-12-10T22:06:32.690Z,3.45
2022-12-10T22:09:00.278Z,2.28
2022-12-10T22:11:28.752Z,3.90
2022-12-10T22:13:56.362Z,4.37
2022-12-10T22:16:24.255Z,2.87
2022-12-10T22:18:51.795Z,2.95
2022-12-10T22:21:23.496Z,4.40
2022-12-10T22:23:53.102Z,3.88
2022-12-10T22:26:22.862Z,4.22
2022-12-10T22:28:51.304Z,3.50
2022-12-10T22:31:19.945Z,4.75
2022-12-10T22:33:47.593Z,2.85
2022-12-10T22:36:15.158Z,4.73
2022-12-10T22:38:42.788Z,4.20
2022-12-10T22:41:10.414Z,3.70
2022-12-10T22:43:53.285Z,4.03
2022-12-10T22:46:21.628Z,4.50
2022-12-10T22:48:49.407Z,5.47
2022-12-10T22:51:17.557Z,4.67
2022-12-10T22:53:46.120Z,3.83
2022-12-10T22:56:16.266Z,4.60
2022-12-10T22:58:44.289Z,5.80
2022-12-10T23:01:18.011Z,6.82
2022-12-10T23:03:46.346Z,6.63
2022-12-10T23:06:13.911Z,4.88
2022-12-10T23:08:41.536Z,6.70
2022-12-10T23:11:12.207Z,4.63
2022-12-10T23:13:40.913Z,2.72
2022-12-10T23:16:14.251Z,2.97
2022-12-10T23:18:43.983Z,3.33
2022-12-10T23:21:25.575Z,2.17
2022-12-10T23:23:54.608Z,2.20
2022-12-10T23:26:22.540Z,3.10
2022-12-10T23:28:50.429Z,3.92
2022-12-10T23:31:18.731Z,2.80
2022-12-10T23:33:46.897Z,1.80
2022-12-10T23:36:14.418Z,2.40
2022-12-10T23:38:42.147Z,2.35
2022-12-10T23:41:12.235Z,2.15
2022-12-10T23:43:43.235Z,2.00
2022-12-10T23:46:11.493Z,2.00
2022-12-10T23:48:39.263Z,1.90
2022-12-10T23:51:07.263Z,2.63
2022-12-10T23:53:36.025Z,1.63
2022-12-10T23:56:16.652Z,2.45
2022-12-10T23:58:46.048Z,2.95
